Parana, Argentina
Current Conditions -  °F | °C
As of 5:00 PM on Friday 31 Oct 2014 (Local Time) from SAAR Reporting Station
Broken Clouds Broken Clouds  
Wind Chill: 21°   Ceiling: 10000
Heat Index: 21°   Visibility: 6mi
Dew Point: 17°   Wind: 9mph
Humidity: 78%   Direction: 50°NE
Pressure: 29.91"   Gusts: NA
Location:  31.5°S, 60.8°W
Report Text: SAAR 312000Z 05008KT 9999 FEW013 SCT016BKN100 21/17 Q1013
Loading
Personal Weather Stations






























Interactive Weather Map
Tropical Storm Tracking
New forecast layout! Learn more

10-Day Weather Forecast

Advertisements
Track Severe Weather on mobile